sensor_id;sensor_type;location;lat;lon;timestamp;P1;durP1;ratioP1;P2;durP2;ratioP2
40252;SDS011;25972;51.854;4.534;2022-12-07T00:00:54;17.48;;;12.32;;
40252;SDS011;25972;51.854;4.534;2022-12-07T00:03:29;15.98;;;12.25;;
40252;SDS011;25972;51.854;4.534;2022-12-07T00:05:57;12.93;;;11.52;;
40252;SDS011;25972;51.854;4.534;2022-12-07T00:08:23;17.13;;;11.40;;
40252;SDS011;25972;51.854;4.534;2022-12-07T00:10:49;12.38;;;11.13;;
40252;SDS011;25972;51.854;4.534;2022-12-07T00:13:15;12.25;;;10.95;;
40252;SDS011;25972;51.854;4.534;2022-12-07T00:15:41;15.32;;;11.55;;
40252;SDS011;25972;51.854;4.534;2022-12-07T00:18:06;12.18;;;10.98;;
40252;SDS011;25972;51.854;4.534;2022-12-07T00:20:32;13.13;;;11.82;;
40252;SDS011;25972;51.854;4.534;2022-12-07T00:22:58;13.63;;;12.10;;
40252;SDS011;25972;51.854;4.534;2022-12-07T00:25:24;13.73;;;11.45;;
40252;SDS011;25972;51.854;4.534;2022-12-07T00:27:51;12.18;;;10.93;;
40252;SDS011;25972;51.854;4.534;2022-12-07T00:30:18;11.57;;;10.57;;
40252;SDS011;25972;51.854;4.534;2022-12-07T00:32:44;13.02;;;11.77;;
40252;SDS011;25972;51.854;4.534;2022-12-07T00:35:10;20.83;;;14.10;;
40252;SDS011;25972;51.854;4.534;2022-12-07T00:37:35;16.52;;;12.95;;
40252;SDS011;25972;51.854;4.534;2022-12-07T00:40:01;14.02;;;12.23;;
40252;SDS011;25972;51.854;4.534;2022-12-07T00:42:27;14.23;;;11.57;;
40252;SDS011;25972;51.854;4.534;2022-12-07T00:44:53;13.35;;;11.13;;
40252;SDS011;25972;51.854;4.534;2022-12-07T00:47:19;13.73;;;11.90;;
40252;SDS011;25972;51.854;4.534;2022-12-07T00:49:45;12.98;;;11.68;;
40252;SDS011;25972;51.854;4.534;2022-12-07T00:52:11;12.70;;;11.50;;
40252;SDS011;25972;51.854;4.534;2022-12-07T00:54:36;14.98;;;11.57;;
40252;SDS011;25972;51.854;4.534;2022-12-07T00:57:02;14.77;;;12.02;;
40252;SDS011;25972;51.854;4.534;2022-12-07T00:59:28;13.50;;;11.70;;
40252;SDS011;25972;51.854;4.534;2022-12-07T01:01:54;14.48;;;11.60;;
40252;SDS011;25972;51.854;4.534;2022-12-07T01:04:20;13.38;;;11.98;;
40252;SDS011;25972;51.854;4.534;2022-12-07T01:06:45;13.35;;;11.60;;
40252;SDS011;25972;51.854;4.534;2022-12-07T01:09:11;12.48;;;11.13;;
40252;SDS011;25972;51.854;4.534;2022-12-07T01:11:37;12.45;;;11.27;;
40252;SDS011;25972;51.854;4.534;2022-12-07T01:14:03;12.48;;;11.18;;
40252;SDS011;25972;51.854;4.534;2022-12-07T01:16:29;12.45;;;11.30;;
40252;SDS011;25972;51.854;4.534;2022-12-07T01:18:57;11.70;;;10.80;;
40252;SDS011;25972;51.854;4.534;2022-12-07T01:21:27;13.77;;;11.30;;
40252;SDS011;25972;51.854;4.534;2022-12-07T01:23:56;12.05;;;10.95;;
40252;SDS011;25972;51.854;4.534;2022-12-07T01:26:23;12.52;;;11.45;;
40252;SDS011;25972;51.854;4.534;2022-12-07T01:28:50;12.77;;;11.63;;
40252;SDS011;25972;51.854;4.534;2022-12-07T01:31:17;12.48;;;11.10;;
40252;SDS011;25972;51.854;4.534;2022-12-07T01:33:46;11.88;;;10.80;;
40252;SDS011;25972;51.854;4.534;2022-12-07T01:36:34;12.50;;;11.30;;
40252;SDS011;25972;51.854;4.534;2022-12-07T01:39:04;12.00;;;11.00;;
40252;SDS011;25972;51.854;4.534;2022-12-07T01:41:32;12.23;;;11.02;;
40252;SDS011;25972;51.854;4.534;2022-12-07T01:44:14;12.40;;;10.95;;
40252;SDS011;25972;51.854;4.534;2022-12-07T01:46:40;11.95;;;10.82;;
40252;SDS011;25972;51.854;4.534;2022-12-07T01:49:10;11.77;;;10.55;;
40252;SDS011;25972;51.854;4.534;2022-12-07T01:51:42;12.00;;;10.80;;
40252;SDS011;25972;51.854;4.534;2022-12-07T01:54:10;11.70;;;10.80;;
40252;SDS011;25972;51.854;4.534;2022-12-07T01:56:38;12.30;;;11.38;;
40252;SDS011;25972;51.854;4.534;2022-12-07T01:59:06;12.25;;;11.25;;
40252;SDS011;25972;51.854;4.534;2022-12-07T02:01:33;12.45;;;11.32;;
40252;SDS011;25972;51.854;4.534;2022-12-07T02:04:00;11.50;;;10.50;;
40252;SDS011;25972;51.854;4.534;2022-12-07T02:06:26;12.13;;;11.10;;
40252;SDS011;25972;51.854;4.534;2022-12-07T02:08:53;12.07;;;11.18;;
40252;SDS011;25972;51.854;4.534;2022-12-07T02:11:19;12.10;;;11.10;;
40252;SDS011;25972;51.854;4.534;2022-12-07T02:13:45;12.02;;;10.93;;
40252;SDS011;25972;51.854;4.534;2022-12-07T02:30:08;12.07;;;11.07;;
40252;SDS011;25972;51.854;4.534;2022-12-07T02:35:26;15.85;;;10.82;;
40252;SDS011;25972;51.854;4.534;2022-12-07T02:40:35;11.57;;;10.57;;
40252;SDS011;25972;51.854;4.534;2022-12-07T02:45:54;11.63;;;10.70;;
40252;SDS011;25972;51.854;4.534;2022-12-07T02:48:25;11.93;;;10.73;;
40252;SDS011;25972;51.854;4.534;2022-12-07T02:50:53;11.93;;;10.77;;
40252;SDS011;25972;51.854;4.534;2022-12-07T02:53:29;12.45;;;11.45;;
40252;SDS011;25972;51.854;4.534;2022-12-07T02:56:28;12.65;;;11.50;;
40252;SDS011;25972;51.854;4.534;2022-12-07T03:12:44;12.80;;;11.70;;
40252;SDS011;25972;51.854;4.534;2022-12-07T03:15:16;13.35;;;11.73;;
40252;SDS011;25972;51.854;4.534;2022-12-07T03:17:52;13.27;;;11.95;;
40252;SDS011;25972;51.854;4.534;2022-12-07T03:20:22;12.20;;;11.20;;
40252;SDS011;25972;51.854;4.534;2022-12-07T03:22:49;13.20;;;11.90;;
40252;SDS011;25972;51.854;4.534;2022-12-07T03:25:18;12.43;;;11.43;;
40252;SDS011;25972;51.854;4.534;2022-12-07T03:27:45;12.30;;;11.07;;
40252;SDS011;25972;51.854;4.534;2022-12-07T03:30:24;12.38;;;11.27;;
40252;SDS011;25972;51.854;4.534;2022-12-07T03:33:08;14.70;;;11.20;;
40252;SDS011;25972;51.854;4.534;2022-12-07T03:35:45;13.27;;;11.25;;
40252;SDS011;25972;51.854;4.534;2022-12-07T03:38:21;12.30;;;11.30;;
40252;SDS011;25972;51.854;4.534;2022-12-07T03:41:00;12.40;;;11.15;;
40252;SDS011;25972;51.854;4.534;2022-12-07T03:43:35;11.80;;;10.80;;
40252;SDS011;25972;51.854;4.534;2022-12-07T03:51:28;12.25;;;11.30;;
40252;SDS011;25972;51.854;4.534;2022-12-07T03:54:15;11.70;;;10.75;;
40252;SDS011;25972;51.854;4.534;2022-12-07T03:56:43;11.82;;;10.68;;
40252;SDS011;25972;51.854;4.534;2022-12-07T03:59:11;12.50;;;11.23;;
40252;SDS011;25972;51.854;4.534;2022-12-07T04:01:40;12.48;;;11.27;;
40252;SDS011;25972;51.854;4.534;2022-12-07T04:04:08;11.50;;;10.63;;
40252;SDS011;25972;51.854;4.534;2022-12-07T04:06:34;11.75;;;10.85;;
40252;SDS011;25972;51.854;4.534;2022-12-07T04:09:00;13.05;;;11.15;;
40252;SDS011;25972;51.854;4.534;2022-12-07T04:11:25;11.50;;;10.68;;
40252;SDS011;25972;51.854;4.534;2022-12-07T04:13:51;11.43;;;10.45;;
40252;SDS011;25972;51.854;4.534;2022-12-07T04:16:36;12.75;;;11.45;;
40252;SDS011;25972;51.854;4.534;2022-12-07T04:19:02;12.35;;;11.15;;
40252;SDS011;25972;51.854;4.534;2022-12-07T04:21:29;12.10;;;10.95;;
40252;SDS011;25972;51.854;4.534;2022-12-07T04:23:55;12.50;;;11.40;;
40252;SDS011;25972;51.854;4.534;2022-12-07T04:26:21;12.30;;;11.15;;
40252;SDS011;25972;51.854;4.534;2022-12-07T04:28:47;11.75;;;10.93;;
40252;SDS011;25972;51.854;4.534;2022-12-07T04:31:12;12.18;;;11.00;;
40252;SDS011;25972;51.854;4.534;2022-12-07T04:33:38;11.45;;;10.52;;
40252;SDS011;25972;51.854;4.534;2022-12-07T04:36:04;13.25;;;11.85;;
40252;SDS011;25972;51.854;4.534;2022-12-07T04:38:31;12.23;;;11.32;;
40252;SDS011;25972;51.854;4.534;2022-12-07T04:40:56;12.00;;;11.10;;
40252;SDS011;25972;51.854;4.534;2022-12-07T04:43:22;11.95;;;10.95;;
40252;SDS011;25972;51.854;4.534;2022-12-07T04:45:48;11.38;;;10.43;;
40252;SDS011;25972;51.854;4.534;2022-12-07T04:48:15;11.98;;;10.90;;
40252;SDS011;25972;51.854;4.534;2022-12-07T04:50:41;11.75;;;10.90;;
40252;SDS011;25972;51.854;4.534;2022-12-07T04:53:07;11.40;;;10.50;;
40252;SDS011;25972;51.854;4.534;2022-12-07T04:55:33;11.82;;;10.63;;
40252;SDS011;25972;51.854;4.534;2022-12-07T04:57:59;11.73;;;10.73;;
40252;SDS011;25972;51.854;4.534;2022-12-07T05:00:24;11.80;;;10.77;;
40252;SDS011;25972;51.854;4.534;2022-12-07T05:02:50;12.43;;;11.43;;
40252;SDS011;25972;51.854;4.534;2022-12-07T05:05:16;11.95;;;10.88;;
40252;SDS011;25972;51.854;4.534;2022-12-07T05:07:42;11.80;;;10.80;;
40252;SDS011;25972;51.854;4.534;2022-12-07T05:10:08;11.85;;;10.82;;
40252;SDS011;25972;51.854;4.534;2022-12-07T05:12:34;11.23;;;10.30;;
40252;SDS011;25972;51.854;4.534;2022-12-07T05:14:59;11.60;;;10.60;;
40252;SDS011;25972;51.854;4.534;2022-12-07T05:17:25;12.27;;;11.00;;
40252;SDS011;25972;51.854;4.534;2022-12-07T05:19:51;11.70;;;10.73;;
40252;SDS011;25972;51.854;4.534;2022-12-07T05:22:17;11.68;;;10.60;;
40252;SDS011;25972;51.854;4.534;2022-12-07T05:24:43;11.53;;;10.50;;
40252;SDS011;25972;51.854;4.534;2022-12-07T05:27:09;11.80;;;10.87;;
40252;SDS011;25972;51.854;4.534;2022-12-07T05:29:34;12.07;;;11.03;;
40252;SDS011;25972;51.854;4.534;2022-12-07T05:32:00;11.60;;;10.60;;
40252;SDS011;25972;51.854;4.534;2022-12-07T05:34:26;12.07;;;11.07;;
40252;SDS011;25972;51.854;4.534;2022-12-07T05:36:52;13.23;;;10.70;;
40252;SDS011;25972;51.854;4.534;2022-12-07T05:39:18;12.07;;;10.97;;
40252;SDS011;25972;51.854;4.534;2022-12-07T05:41:43;11.47;;;10.57;;
40252;SDS011;25972;51.854;4.534;2022-12-07T05:44:27;12.27;;;11.17;;
40252;SDS011;25972;51.854;4.534;2022-12-07T05:46:53;12.17;;;11.07;;
40252;SDS011;25972;51.854;4.534;2022-12-07T05:49:19;11.80;;;10.63;;
40252;SDS011;25972;51.854;4.534;2022-12-07T05:51:45;11.97;;;10.87;;
40252;SDS011;25972;51.854;4.534;2022-12-07T05:54:11;12.07;;;10.97;;
40252;SDS011;25972;51.854;4.534;2022-12-07T05:56:37;12.27;;;10.80;;
40252;SDS011;25972;51.854;4.534;2022-12-07T05:59:03;12.20;;;11.10;;
40252;SDS011;25972;51.854;4.534;2022-12-07T06:01:48;12.50;;;11.40;;
40252;SDS011;25972;51.854;4.534;2022-12-07T06:04:24;18.03;;;11.63;;
40252;SDS011;25972;51.854;4.534;2022-12-07T06:06:52;12.20;;;11.10;;
40252;SDS011;25972;51.854;4.534;2022-12-07T06:09:19;13.17;;;11.93;;
40252;SDS011;25972;51.854;4.534;2022-12-07T06:11:46;12.60;;;11.30;;
40252;SDS011;25972;51.854;4.534;2022-12-07T06:14:31;12.87;;;11.77;;
40252;SDS011;25972;51.854;4.534;2022-12-07T06:16:57;12.40;;;11.10;;
40252;SDS011;25972;51.854;4.534;2022-12-07T06:19:23;13.17;;;11.00;;
40252;SDS011;25972;51.854;4.534;2022-12-07T06:21:49;11.87;;;10.70;;
40252;SDS011;25972;51.854;4.534;2022-12-07T06:24:15;12.20;;;10.83;;
40252;SDS011;25972;51.854;4.534;2022-12-07T06:26:42;11.77;;;10.53;;
40252;SDS011;25972;51.854;4.534;2022-12-07T06:29:08;12.73;;;11.50;;
40252;SDS011;25972;51.854;4.534;2022-12-07T06:31:35;13.43;;;11.23;;
40252;SDS011;25972;51.854;4.534;2022-12-07T06:34:03;15.23;;;10.43;;
40252;SDS011;25972;51.854;4.534;2022-12-07T06:36:30;12.37;;;11.17;;
40252;SDS011;25972;51.854;4.534;2022-12-07T06:38:57;15.53;;;11.27;;
40252;SDS011;25972;51.854;4.534;2022-12-07T06:41:23;11.93;;;10.87;;
40252;SDS011;25972;51.854;4.534;2022-12-07T06:43:49;12.53;;;11.23;;
40252;SDS011;25972;51.854;4.534;2022-12-07T06:46:15;12.10;;;10.67;;
40252;SDS011;25972;51.854;4.534;2022-12-07T06:48:42;11.90;;;10.90;;
40252;SDS011;25972;51.854;4.534;2022-12-07T06:51:08;11.37;;;10.00;;
40252;SDS011;25972;51.854;4.534;2022-12-07T06:53:34;10.97;;;9.90;;
40252;SDS011;25972;51.854;4.534;2022-12-07T06:56:01;11.67;;;10.50;;
40252;SDS011;25972;51.854;4.534;2022-12-07T06:58:27;11.67;;;10.57;;
40252;SDS011;25972;51.854;4.534;2022-12-07T07:00:53;11.50;;;10.40;;
40252;SDS011;25972;51.854;4.534;2022-12-07T07:03:19;11.20;;;10.13;;
40252;SDS011;25972;51.854;4.534;2022-12-07T07:05:45;12.23;;;10.97;;
40252;SDS011;25972;51.854;4.534;2022-12-07T07:08:11;11.80;;;10.77;;
40252;SDS011;25972;51.854;4.534;2022-12-07T07:10:39;13.13;;;10.67;;
40252;SDS011;25972;51.854;4.534;2022-12-07T07:13:05;11.73;;;9.90;;
40252;SDS011;25972;51.854;4.534;2022-12-07T07:15:32;11.53;;;10.47;;
40252;SDS011;25972;51.854;4.534;2022-12-07T07:17:59;11.20;;;10.20;;
40252;SDS011;25972;51.854;4.534;2022-12-07T07:20:25;11.63;;;10.10;;
40252;SDS011;25972;51.854;4.534;2022-12-07T07:22:53;10.60;;;9.47;;
40252;SDS011;25972;51.854;4.534;2022-12-07T07:25:20;11.10;;;9.87;;
40252;SDS011;25972;51.854;4.534;2022-12-07T07:27:47;10.67;;;9.63;;
40252;SDS011;25972;51.854;4.534;2022-12-07T07:30:14;10.77;;;9.70;;
40252;SDS011;25972;51.854;4.534;2022-12-07T07:32:41;13.90;;;10.10;;
40252;SDS011;25972;51.854;4.534;2022-12-07T07:35:08;11.60;;;10.60;;
40252;SDS011;25972;51.854;4.534;2022-12-07T07:37:34;12.27;;;11.07;;
40252;SDS011;25972;51.854;4.534;2022-12-07T07:40:02;11.83;;;10.60;;
40252;SDS011;25972;51.854;4.534;2022-12-07T07:42:28;12.67;;;11.50;;
40252;SDS011;25972;51.854;4.534;2022-12-07T07:44:54;13.07;;;11.27;;
40252;SDS011;25972;51.854;4.534;2022-12-07T07:47:20;13.63;;;11.97;;
40252;SDS011;25972;51.854;4.534;2022-12-07T07:49:47;12.50;;;11.27;;
40252;SDS011;25972;51.854;4.534;2022-12-07T07:52:13;12.47;;;11.37;;
40252;SDS011;25972;51.854;4.534;2022-12-07T07:54:39;12.87;;;11.37;;
40252;SDS011;25972;51.854;4.534;2022-12-07T07:57:04;14.87;;;11.73;;
40252;SDS011;25972;51.854;4.534;2022-12-07T07:59:30;13.70;;;12.13;;
40252;SDS011;25972;51.854;4.534;2022-12-07T08:01:56;14.20;;;12.27;;
40252;SDS011;25972;51.854;4.534;2022-12-07T08:04:23;13.77;;;12.30;;
40252;SDS011;25972;51.854;4.534;2022-12-07T08:06:49;15.03;;;12.63;;
40252;SDS011;25972;51.854;4.534;2022-12-07T08:09:15;13.27;;;11.37;;
40252;SDS011;25972;51.854;4.534;2022-12-07T08:11:41;14.97;;;11.93;;
40252;SDS011;25972;51.854;4.534;2022-12-07T08:14:09;13.03;;;11.63;;
40252;SDS011;25972;51.854;4.534;2022-12-07T08:16:37;13.77;;;12.43;;
40252;SDS011;25972;51.854;4.534;2022-12-07T08:19:04;14.87;;;11.97;;
40252;SDS011;25972;51.854;4.534;2022-12-07T08:21:30;14.43;;;12.40;;
40252;SDS011;25972;51.854;4.534;2022-12-07T08:23:56;13.57;;;12.17;;
40252;SDS011;25972;51.854;4.534;2022-12-07T08:26:22;16.57;;;12.47;;
40252;SDS011;25972;51.854;4.534;2022-12-07T08:28:48;15.50;;;13.57;;
40252;SDS011;25972;51.854;4.534;2022-12-07T08:31:15;13.77;;;12.33;;
40252;SDS011;25972;51.854;4.534;2022-12-07T08:33:44;13.53;;;11.30;;
40252;SDS011;25972;51.854;4.534;2022-12-07T08:36:12;14.33;;;11.70;;
40252;SDS011;25972;51.854;4.534;2022-12-07T08:38:39;15.80;;;12.10;;
40252;SDS011;25972;51.854;4.534;2022-12-07T08:41:06;19.43;;;12.80;;
40252;SDS011;25972;51.854;4.534;2022-12-07T08:43:32;14.77;;;12.90;;
40252;SDS011;25972;51.854;4.534;2022-12-07T08:49:02;15.60;;;13.15;;
40252;SDS011;25972;51.854;4.534;2022-12-07T08:51:36;18.27;;;12.90;;
40252;SDS011;25972;51.854;4.534;2022-12-07T08:54:03;15.43;;;12.98;;
40252;SDS011;25972;51.854;4.534;2022-12-07T08:56:31;13.95;;;12.57;;
40252;SDS011;25972;51.854;4.534;2022-12-07T08:58:57;15.02;;;13.30;;
40252;SDS011;25972;51.854;4.534;2022-12-07T09:01:23;13.93;;;12.60;;
40252;SDS011;25972;51.854;4.534;2022-12-07T09:03:49;15.23;;;13.32;;
40252;SDS011;25972;51.854;4.534;2022-12-07T09:06:15;14.68;;;13.20;;
40252;SDS011;25972;51.854;4.534;2022-12-07T09:08:42;13.27;;;12.18;;
40252;SDS011;25972;51.854;4.534;2022-12-07T09:11:12;15.73;;;13.88;;
40252;SDS011;25972;51.854;4.534;2022-12-07T09:13:38;14.40;;;13.10;;
40252;SDS011;25972;51.854;4.534;2022-12-07T09:16:04;34.05;;;22.10;;
40252;SDS011;25972;51.854;4.534;2022-12-07T09:18:30;18.83;;;15.68;;
40252;SDS011;25972;51.854;4.534;2022-12-07T09:20:56;17.17;;;15.45;;
40252;SDS011;25972;51.854;4.534;2022-12-07T09:23:21;15.68;;;14.05;;
40252;SDS011;25972;51.854;4.534;2022-12-07T09:25:49;16.25;;;14.63;;
40252;SDS011;25972;51.854;4.534;2022-12-07T09:28:14;18.35;;;14.20;;
40252;SDS011;25972;51.854;4.534;2022-12-07T09:30:47;13.40;;;12.10;;
40252;SDS011;25972;51.854;4.534;2022-12-07T09:33:13;15.63;;;13.13;;
40252;SDS011;25972;51.854;4.534;2022-12-07T09:35:49;14.88;;;12.52;;
40252;SDS011;25972;51.854;4.534;2022-12-07T09:38:16;14.25;;;12.88;;
40252;SDS011;25972;51.854;4.534;2022-12-07T09:40:43;14.40;;;13.02;;
40252;SDS011;25972;51.854;4.534;2022-12-07T09:43:12;14.30;;;12.48;;
40252;SDS011;25972;51.854;4.534;2022-12-07T09:45:47;13.93;;;11.77;;
40252;SDS011;25972;51.854;4.534;2022-12-07T09:48:16;14.00;;;11.85;;
40252;SDS011;25972;51.854;4.534;2022-12-07T09:50:45;16.90;;;12.10;;
40252;SDS011;25972;51.854;4.534;2022-12-07T09:53:34;13.10;;;11.77;;
40252;SDS011;25972;51.854;4.534;2022-12-07T09:56:00;16.25;;;12.25;;
40252;SDS011;25972;51.854;4.534;2022-12-07T09:58:27;14.32;;;12.35;;
40252;SDS011;25972;51.854;4.534;2022-12-07T10:01:28;14.35;;;11.90;;
40252;SDS011;25972;51.854;4.534;2022-12-07T10:06:15;13.50;;;12.35;;
40252;SDS011;25972;51.854;4.534;2022-12-07T10:08:41;14.15;;;12.82;;
40252;SDS011;25972;51.854;4.534;2022-12-07T10:11:08;14.55;;;13.30;;
40252;SDS011;25972;51.854;4.534;2022-12-07T10:13:37;13.90;;;12.73;;
40252;SDS011;25972;51.854;4.534;2022-12-07T10:19:01;14.85;;;13.27;;
40252;SDS011;25972;51.854;4.534;2022-12-07T10:21:58;14.68;;;13.45;;
40252;SDS011;25972;51.854;4.534;2022-12-07T10:24:25;14.88;;;13.38;;
40252;SDS011;25972;51.854;4.534;2022-12-07T10:26:51;15.75;;;13.55;;
40252;SDS011;25972;51.854;4.534;2022-12-07T10:29:22;17.55;;;14.23;;
40252;SDS011;25972;51.854;4.534;2022-12-07T10:34:41;14.38;;;13.10;;
40252;SDS011;25972;51.854;4.534;2022-12-07T10:45:23;14.60;;;13.50;;
40252;SDS011;25972;51.854;4.534;2022-12-07T10:50:52;15.52;;;14.05;;
40252;SDS011;25972;51.854;4.534;2022-12-07T11:02:21;15.35;;;13.82;;
40252;SDS011;25972;51.854;4.534;2022-12-07T11:21:25;15.75;;;14.35;;
40252;SDS011;25972;51.854;4.534;2022-12-07T11:34:37;17.83;;;15.60;;
40252;SDS011;25972;51.854;4.534;2022-12-07T11:37:17;16.67;;;15.23;;
40252;SDS011;25972;51.854;4.534;2022-12-07T11:42:27;16.40;;;15.02;;
40252;SDS011;25972;51.854;4.534;2022-12-07T11:48:11;17.20;;;15.45;;
40252;SDS011;25972;51.854;4.534;2022-12-07T11:50:48;19.30;;;17.73;;
40252;SDS011;25972;51.854;4.534;2022-12-07T11:53:41;16.88;;;15.05;;
40252;SDS011;25972;51.854;4.534;2022-12-07T12:04:10;15.35;;;13.95;;
40252;SDS011;25972;51.854;4.534;2022-12-07T12:06:37;15.88;;;13.98;;
40252;SDS011;25972;51.854;4.534;2022-12-07T12:14:51;14.30;;;13.30;;
40252;SDS011;25972;51.854;4.534;2022-12-07T12:20:01;14.27;;;13.10;;
40252;SDS011;25972;51.854;4.534;2022-12-07T12:22:42;14.30;;;13.07;;
40252;SDS011;25972;51.854;4.534;2022-12-07T12:25:36;14.90;;;13.40;;
40252;SDS011;25972;51.854;4.534;2022-12-07T12:33:49;14.52;;;13.52;;
40252;SDS011;25972;51.854;4.534;2022-12-07T12:36:18;15.00;;;13.88;;
40252;SDS011;25972;51.854;4.534;2022-12-07T12:51:46;41.80;;;24.17;;
40252;SDS011;25972;51.854;4.534;2022-12-07T12:54:19;33.40;;;22.05;;
40252;SDS011;25972;51.854;4.534;2022-12-07T13:10:21;18.70;;;16.50;;
40252;SDS011;25972;51.854;4.534;2022-12-07T13:18:25;57.67;;;32.90;;
40252;SDS011;25972;51.854;4.534;2022-12-07T13:26:21;20.65;;;17.17;;
40252;SDS011;25972;51.854;4.534;2022-12-07T13:29:19;17.77;;;16.25;;
40252;SDS011;25972;51.854;4.534;2022-12-07T13:31:50;21.52;;;18.98;;
40252;SDS011;25972;51.854;4.534;2022-12-07T13:34:35;21.30;;;18.98;;
40252;SDS011;25972;51.854;4.534;2022-12-07T13:39:58;18.00;;;16.40;;
40252;SDS011;25972;51.854;4.534;2022-12-07T13:42:27;16.38;;;14.88;;
40252;SDS011;25972;51.854;4.534;2022-12-07T13:44:58;15.50;;;14.18;;
40252;SDS011;25972;51.854;4.534;2022-12-07T13:47:30;16.63;;;15.13;;
40252;SDS011;25972;51.854;4.534;2022-12-07T13:50:01;15.70;;;14.40;;
40252;SDS011;25972;51.854;4.534;2022-12-07T13:52:45;17.45;;;15.65;;
40252;SDS011;25972;51.854;4.534;2022-12-07T13:55:13;19.40;;;17.35;;
40252;SDS011;25972;51.854;4.534;2022-12-07T13:57:40;26.50;;;19.70;;
40252;SDS011;25972;51.854;4.534;2022-12-07T14:00:15;28.17;;;19.63;;
40252;SDS011;25972;51.854;4.534;2022-12-07T14:05:36;22.83;;;19.90;;
40252;SDS011;25972;51.854;4.534;2022-12-07T14:08:04;23.67;;;20.80;;
40252;SDS011;25972;51.854;4.534;2022-12-07T14:10:32;29.27;;;20.05;;
40252;SDS011;25972;51.854;4.534;2022-12-07T14:13:01;37.47;;;25.83;;
40252;SDS011;25972;51.854;4.534;2022-12-07T14:15:49;37.35;;;24.15;;
40252;SDS011;25972;51.854;4.534;2022-12-07T14:18:24;28.02;;;22.65;;
40252;SDS011;25972;51.854;4.534;2022-12-07T14:21:15;32.85;;;22.38;;
40252;SDS011;25972;51.854;4.534;2022-12-07T14:24:02;22.63;;;19.55;;
40252;SDS011;25972;51.854;4.534;2022-12-07T14:26:33;22.50;;;20.27;;
40252;SDS011;25972;51.854;4.534;2022-12-07T14:31:50;15.82;;;14.50;;
40252;SDS011;25972;51.854;4.534;2022-12-07T14:34:16;16.00;;;14.20;;
40252;SDS011;25972;51.854;4.534;2022-12-07T14:36:44;14.77;;;13.32;;
40252;SDS011;25972;51.854;4.534;2022-12-07T14:39:10;15.70;;;14.30;;
40252;SDS011;25972;51.854;4.534;2022-12-07T14:41:35;15.00;;;13.60;;
40252;SDS011;25972;51.854;4.534;2022-12-07T14:44:16;15.18;;;13.82;;
40252;SDS011;25972;51.854;4.534;2022-12-07T14:46:44;17.05;;;13.95;;
40252;SDS011;25972;51.854;4.534;2022-12-07T14:49:10;15.32;;;13.90;;
40252;SDS011;25972;51.854;4.534;2022-12-07T14:51:37;14.98;;;13.68;;
40252;SDS011;25972;51.854;4.534;2022-12-07T14:54:05;17.00;;;15.23;;
40252;SDS011;25972;51.854;4.534;2022-12-07T14:56:51;19.23;;;16.58;;
40252;SDS011;25972;51.854;4.534;2022-12-07T14:59:17;17.58;;;14.40;;
40252;SDS011;25972;51.854;4.534;2022-12-07T15:01:44;18.17;;;16.25;;
40252;SDS011;25972;51.854;4.534;2022-12-07T15:04:10;15.88;;;14.60;;
40252;SDS011;25972;51.854;4.534;2022-12-07T15:06:36;16.55;;;14.93;;
40252;SDS011;25972;51.854;4.534;2022-12-07T15:09:01;17.38;;;15.60;;
40252;SDS011;25972;51.854;4.534;2022-12-07T15:11:28;14.95;;;13.50;;
40252;SDS011;25972;51.854;4.534;2022-12-07T15:13:53;14.18;;;12.80;;
40252;SDS011;25972;51.854;4.534;2022-12-07T15:16:36;14.27;;;13.18;;
40252;SDS011;25972;51.854;4.534;2022-12-07T15:19:05;13.73;;;12.73;;
40252;SDS011;25972;51.854;4.534;2022-12-07T15:21:34;13.93;;;12.70;;
40252;SDS011;25972;51.854;4.534;2022-12-07T15:24:00;14.50;;;13.32;;
40252;SDS011;25972;51.854;4.534;2022-12-07T15:26:26;15.07;;;13.63;;
40252;SDS011;25972;51.854;4.534;2022-12-07T15:28:52;15.95;;;14.38;;
40252;SDS011;25972;51.854;4.534;2022-12-07T15:31:19;15.90;;;13.73;;
40252;SDS011;25972;51.854;4.534;2022-12-07T15:33:46;14.32;;;13.13;;
40252;SDS011;25972;51.854;4.534;2022-12-07T15:36:19;14.52;;;13.32;;
40252;SDS011;25972;51.854;4.534;2022-12-07T15:38:47;14.18;;;12.90;;
40252;SDS011;25972;51.854;4.534;2022-12-07T15:41:13;13.52;;;12.15;;
40252;SDS011;25972;51.854;4.534;2022-12-07T15:43:39;13.38;;;12.18;;
40252;SDS011;25972;51.854;4.534;2022-12-07T15:46:23;12.88;;;11.77;;
40252;SDS011;25972;51.854;4.534;2022-12-07T15:48:53;12.38;;;11.23;;
40252;SDS011;25972;51.854;4.534;2022-12-07T15:51:19;13.55;;;12.13;;
40252;SDS011;25972;51.854;4.534;2022-12-07T15:53:45;12.93;;;11.77;;
40252;SDS011;25972;51.854;4.534;2022-12-07T15:56:11;12.48;;;11.38;;
40252;SDS011;25972;51.854;4.534;2022-12-07T15:58:37;13.23;;;11.85;;
40252;SDS011;25972;51.854;4.534;2022-12-07T16:01:09;13.10;;;11.98;;
40252;SDS011;25972;51.854;4.534;2022-12-07T16:03:36;12.90;;;11.82;;
40252;SDS011;25972;51.854;4.534;2022-12-07T16:06:02;16.00;;;11.38;;
40252;SDS011;25972;51.854;4.534;2022-12-07T16:08:28;12.00;;;10.88;;
40252;SDS011;25972;51.854;4.534;2022-12-07T16:10:53;13.27;;;10.85;;
40252;SDS011;25972;51.854;4.534;2022-12-07T16:13:19;14.90;;;12.93;;
40252;SDS011;25972;51.854;4.534;2022-12-07T16:15:46;14.85;;;13.38;;
40252;SDS011;25972;51.854;4.534;2022-12-07T16:18:11;17.10;;;13.45;;
40252;SDS011;25972;51.854;4.534;2022-12-07T16:20:37;13.48;;;12.13;;
40252;SDS011;25972;51.854;4.534;2022-12-07T16:23:03;12.30;;;11.25;;
40252;SDS011;25972;51.854;4.534;2022-12-07T16:25:29;11.75;;;10.70;;
40252;SDS011;25972;51.854;4.534;2022-12-07T16:27:55;12.32;;;11.15;;
40252;SDS011;25972;51.854;4.534;2022-12-07T16:30:20;13.25;;;11.52;;
40252;SDS011;25972;51.854;4.534;2022-12-07T16:32:46;13.13;;;11.63;;
40252;SDS011;25972;51.854;4.534;2022-12-07T16:35:12;29.63;;;17.00;;
40252;SDS011;25972;51.854;4.534;2022-12-07T16:37:38;16.25;;;12.95;;
40252;SDS011;25972;51.854;4.534;2022-12-07T16:40:06;13.70;;;12.38;;
40252;SDS011;25972;51.854;4.534;2022-12-07T16:42:33;13.50;;;12.15;;
40252;SDS011;25972;51.854;4.534;2022-12-07T16:44:59;12.93;;;11.80;;
40252;SDS011;25972;51.854;4.534;2022-12-07T16:47:25;13.70;;;12.30;;
40252;SDS011;25972;51.854;4.534;2022-12-07T16:49:51;13.70;;;12.43;;
40252;SDS011;25972;51.854;4.534;2022-12-07T16:52:17;13.18;;;12.02;;
40252;SDS011;25972;51.854;4.534;2022-12-07T16:54:44;14.63;;;11.02;;
40252;SDS011;25972;51.854;4.534;2022-12-07T16:57:10;13.15;;;11.98;;
40252;SDS011;25972;51.854;4.534;2022-12-07T16:59:36;12.95;;;11.68;;
40252;SDS011;25972;51.854;4.534;2022-12-07T17:02:01;12.95;;;11.85;;
40252;SDS011;25972;51.854;4.534;2022-12-07T17:04:28;13.57;;;12.15;;
40252;SDS011;25972;51.854;4.534;2022-12-07T17:06:54;13.20;;;12.02;;
40252;SDS011;25972;51.854;4.534;2022-12-07T17:09:20;12.45;;;11.15;;
40252;SDS011;25972;51.854;4.534;2022-12-07T17:11:45;12.23;;;11.23;;
40252;SDS011;25972;51.854;4.534;2022-12-07T17:14:12;14.50;;;12.82;;
40252;SDS011;25972;51.854;4.534;2022-12-07T17:16:56;21.52;;;14.48;;
40252;SDS011;25972;51.854;4.534;2022-12-07T17:19:22;12.88;;;11.60;;
40252;SDS011;25972;51.854;4.534;2022-12-07T17:21:47;12.65;;;11.40;;
40252;SDS011;25972;51.854;4.534;2022-12-07T17:24:15;17.45;;;13.85;;